Time;durP1;ratioP1;P1;durP2;ratioP2;P2;SDS_P1;SDS_P2;PMS_P1;PMS_P2;Temp;Humidity;BMP_temperature;BMP_pressure;BME280_temperature;BME280_humidity;BME280_pressure;Samples;Min_cycle;Max_cycle;Signal;HPM_P1;HPM_P2
2022/08/22 00:01:57;;;;;;;13.10;12.20;;;16.80;99.90;;;;;;5081052;28;21015;-68
2022/08/22 00:04:33;;;;;;;13.27;12.27;;;16.70;99.90;;;;;;5081157;28;20459;-68
2022/08/22 00:07:05;;;;;;;13.93;12.43;;;16.60;99.90;;;;;;5084452;28;20485;-67
2022/08/22 00:09:39;;;;;;;13.27;12.30;;;16.50;99.90;;;;;;5082809;28;20470;-67
2022/08/22 00:12:18;;;;;;;13.03;12.10;;;16.50;99.90;;;;;;5079045;28;20450;-68
2022/08/22 00:14:50;;;;;;;14.30;13.20;;;16.40;99.90;;;;;;5078610;28;20486;-67
2022/08/22 00:17:36;;;;;;;14.03;12.63;;;16.30;99.90;;;;;;5062859;28;20497;-68
2022/08/22 00:20:11;;;;;;;16.23;12.87;;;16.20;99.90;;;;;;5055576;28;20450;-68
2022/08/22 00:22:46;;;;;;;14.13;13.03;;;16.10;99.90;;;;;;5056594;28;20459;-67
2022/08/22 00:25:44;;;;;;;12.43;11.33;;;16.00;99.90;;;;;;5059704;28;20459;-67
2022/08/22 00:28:16;;;;;;;13.50;12.30;;;15.90;99.90;;;;;;5059914;28;20454;-68
2022/08/22 00:30:51;;;;;;;13.37;12.13;;;15.90;99.90;;;;;;5057881;28;20464;-68
2022/08/22 00:33:25;;;;;;;13.23;12.17;;;15.90;99.90;;;;;;5058598;28;20467;-67
2022/08/22 00:36:02;;;;;;;13.50;12.27;;;15.80;99.90;;;;;;5063438;28;20472;-68
2022/08/22 00:38:34;;;;;;;13.17;12.10;;;15.80;99.90;;;;;;5061831;28;20467;-67
2022/08/22 00:41:07;;;;;;;12.87;11.70;;;15.80;99.90;;;;;;5062038;28;20463;-68
2022/08/22 00:44:01;;;;;;;13.20;11.70;;;15.80;99.90;;;;;;5059278;28;20463;-67
2022/08/22 00:46:52;;;;;;;13.40;12.10;;;15.80;99.90;;;;;;5060906;28;20487;-68
2022/08/22 00:49:37;;;;;;;13.00;11.80;;;15.80;99.90;;;;;;5058246;28;20452;-67
2022/08/22 00:52:40;;;;;;;11.70;10.90;;;15.70;99.90;;;;;;5063110;28;21032;-67
2022/08/22 00:55:31;;;;;;;11.83;10.73;;;15.80;99.90;;;;;;5027499;28;20464;-68
2022/08/22 00:58:28;;;;;;;12.57;11.43;;;15.80;99.90;;;;;;5053971;28;20656;-68
2022/08/22 01:00:59;;;;;;;12.23;11.23;;;15.70;99.90;;;;;;5025826;28;20482;-67
2022/08/22 01:03:54;;;;;;;11.33;10.40;;;15.70;99.90;;;;;;5051544;28;20471;-69
2022/08/22 01:06:32;;;;;;;12.10;11.30;;;15.70;99.90;;;;;;5056861;28;20486;-68
2022/08/22 01:09:05;;;;;;;11.73;10.80;;;15.70;99.90;;;;;;5062707;28;20462;-68
2022/08/22 01:12:01;;;;;;;12.47;11.27;;;15.70;99.90;;;;;;5054585;28;20467;-68
2022/08/22 01:14:38;;;;;;;11.87;10.97;;;15.60;99.90;;;;;;5052375;28;20463;-69
2022/08/22 01:17:32;;;;;;;11.87;10.83;;;15.60;99.90;;;;;;5056420;28;20494;-68
2022/08/22 01:20:38;;;;;;;12.23;11.33;;;15.60;99.90;;;;;;5059678;28;20466;-68
2022/08/22 01:23:41;;;;;;;11.47;10.67;;;15.60;99.90;;;;;;5060592;28;20462;-68
2022/08/22 01:26:36;;;;;;;12.90;11.87;;;15.60;99.90;;;;;;5061603;28;20972;-68
2022/08/22 01:29:55;;;;;;;12.30;11.30;;;15.60;99.90;;;;;;5060125;28;20481;-68
2022/08/22 01:33:24;;;;;;;13.10;11.77;;;15.60;99.90;;;;;;5057878;28;20950;-67
2022/08/22 01:36:15;;;;;;;12.37;11.37;;;15.60;99.90;;;;;;4962454;28;20818;-68
2022/08/22 01:39:01;;;;;;;12.97;11.70;;;15.70;99.90;;;;;;4967020;28;20482;-68
2022/08/22 01:41:59;;;;;;;12.20;11.30;;;15.60;99.90;;;;;;5059420;28;20459;-68
2022/08/22 01:44:55;;;;;;;12.23;11.37;;;15.60;99.90;;;;;;5063065;28;20463;-68
2022/08/22 01:47:26;;;;;;;12.33;11.40;;;15.50;99.90;;;;;;5059940;28;20494;-67
2022/08/22 01:50:00;;;;;;;13.07;11.77;;;15.40;99.90;;;;;;5062741;28;20471;-67
2022/08/22 01:52:38;;;;;;;12.70;11.57;;;15.40;99.90;;;;;;5061837;28;20459;-68
2022/08/22 01:55:10;;;;;;;13.77;12.17;;;15.30;99.90;;;;;;5056112;28;20460;-68
2022/08/22 01:57:51;;;;;;;13.03;12.10;;;15.20;99.90;;;;;;5062272;28;20466;-67
2022/08/22 02:00:21;;;;;;;13.30;12.40;;;15.20;99.90;;;;;;5053427;28;20463;-67
2022/08/22 02:03:02;;;;;;;12.63;11.03;;;15.10;99.90;;;;;;5060634;28;20463;-68
2022/08/22 02:05:36;;;;;;;12.90;11.83;;;15.10;99.90;;;;;;5060615;28;20562;-68
2022/08/22 02:08:17;;;;;;;13.57;12.23;;;15.10;99.90;;;;;;5054694;28;20899;-68
2022/08/22 02:10:57;;;;;;;13.83;12.67;;;15.10;99.90;;;;;;5060951;28;20455;-67
2022/08/22 02:13:49;;;;;;;14.20;13.00;;;15.10;99.90;;;;;;5054944;28;20815;-68
2022/08/22 02:16:35;;;;;;;13.70;12.50;;;15.00;99.90;;;;;;5061593;28;20476;-67
2022/08/22 02:19:20;;;;;;;12.30;11.40;;;15.00;99.90;;;;;;5067153;28;20495;-68
2022/08/22 02:21:54;;;;;;;11.83;10.83;;;15.00;99.90;;;;;;5057422;28;20659;-67
2022/08/22 02:24:34;;;;;;;13.23;11.97;;;15.10;99.90;;;;;;5060512;28;20455;-67
2022/08/22 02:27:10;;;;;;;12.43;11.30;;;15.10;99.90;;;;;;5059279;28;20474;-68
2022/08/22 02:29:43;;;;;;;12.60;11.50;;;15.20;99.90;;;;;;5059702;28;20466;-67
2022/08/22 02:32:19;;;;;;;13.13;12.10;;;15.20;99.90;;;;;;5061202;28;20973;-68
2022/08/22 02:34:57;;;;;;;12.00;10.90;;;15.10;99.90;;;;;;5054933;28;20478;-68
2022/08/22 02:37:37;;;;;;;13.40;12.10;;;15.10;99.90;;;;;;5063284;28;20834;-68
2022/08/22 02:40:12;;;;;;;12.63;11.73;;;15.10;99.90;;;;;;5056764;28;20475;-68
2022/08/22 02:42:44;;;;;;;13.13;12.13;;;15.10;99.90;;;;;;5062345;28;20455;-68
2022/08/22 02:45:30;;;;;;;12.27;11.07;;;15.10;99.90;;;;;;5059066;28;20466;-68
2022/08/22 02:48:04;;;;;;;11.63;10.80;;;15.00;99.90;;;;;;5056005;28;20491;-68
2022/08/22 02:50:38;;;;;;;12.03;10.93;;;15.00;99.90;;;;;;5056873;28;20455;-68
2022/08/22 02:53:11;;;;;;;11.47;10.60;;;15.00;99.90;;;;;;5054068;28;20498;-67
2022/08/22 02:55:50;;;;;;;13.17;12.07;;;15.00;99.90;;;;;;5057949;28;20677;-68
2022/08/22 02:58:24;;;;;;;13.47;12.10;;;15.00;99.90;;;;;;5065957;28;20466;-68
2022/08/22 03:01:23;;;;;;;15.97;11.13;;;14.90;99.90;;;;;;5060485;28;20705;-68
2022/08/22 03:03:52;;;;;;;12.03;11.03;;;14.90;99.90;;;;;;5059626;28;20455;-67
2022/08/22 03:06:39;;;;;;;18.47;12.83;;;14.80;99.90;;;;;;5057835;28;20459;-68
2022/08/22 03:09:20;;;;;;;17.57;12.10;;;14.80;99.90;;;;;;5056555;28;20467;-68
2022/08/22 03:11:58;;;;;;;13.17;11.90;;;14.80;99.90;;;;;;5058799;28;20460;-68
2022/08/22 03:14:31;;;;;;;12.27;11.30;;;14.80;99.90;;;;;;5056708;28;20455;-68
2022/08/22 03:17:08;;;;;;;12.70;11.70;;;14.80;99.90;;;;;;5058401;28;20884;-68
2022/08/22 03:19:49;;;;;;;14.37;12.60;;;14.80;99.90;;;;;;5059863;28;20538;-67
2022/08/22 03:22:20;;;;;;;17.00;11.97;;;14.80;99.90;;;;;;5056546;28;20873;-67
2022/08/22 03:24:52;;;;;;;11.93;10.83;;;14.80;99.90;;;;;;5064896;28;20455;-67
2022/08/22 03:27:25;;;;;;;13.83;12.57;;;14.70;99.90;;;;;;5057749;28;20501;-68
2022/08/22 03:29:56;;;;;;;18.30;10.97;;;14.80;99.90;;;;;;5056711;28;20466;-68
2022/08/22 03:32:45;;;;;;;13.07;11.87;;;14.80;99.90;;;;;;5058643;28;20485;-68
2022/08/22 03:35:23;;;;;;;12.43;11.37;;;14.80;99.90;;;;;;5058249;28;20895;-67
2022/08/22 03:37:55;;;;;;;13.13;11.90;;;14.90;99.90;;;;;;5052156;28;20470;-68
2022/08/22 03:40:27;;;;;;;12.67;11.43;;;14.90;99.90;;;;;;5058990;28;20456;-67
2022/08/22 03:43:24;;;;;;;14.60;12.03;;;15.00;99.90;;;;;;5057820;28;20463;-68
2022/08/22 03:46:37;;;;;;;13.37;12.07;;;14.90;99.90;;;;;;5058655;28;20455;-67
2022/08/22 03:49:23;;;;;;;12.30;11.30;;;14.70;99.90;;;;;;5054930;28;20879;-68
2022/08/22 03:52:11;;;;;;;12.90;11.70;;;14.60;99.90;;;;;;5061502;28;20463;-67
2022/08/22 03:55:19;;;;;;;13.40;11.97;;;14.50;99.90;;;;;;5057776;28;20533;-67
2022/08/22 03:58:03;;;;;;;17.97;12.33;;;14.30;99.90;;;;;;5061739;28;20813;-68
2022/08/22 04:01:02;;;;;;;13.37;12.17;;;14.30;99.90;;;;;;5062928;28;20463;-68
2022/08/22 04:04:11;;;;;;;17.43;13.40;;;14.30;99.90;;;;;;4965149;28;20462;-67
2022/08/22 04:06:54;;;;;;;13.53;11.93;;;14.30;99.90;;;;;;5026561;28;20489;-68
2022/08/22 04:10:02;;;;;;;13.70;12.40;;;14.30;99.90;;;;;;5027245;28;20849;-67
2022/08/22 04:12:48;;;;;;;18.23;13.80;;;14.30;99.90;;;;;;4988351;28;20620;-68
2022/08/22 04:16:12;;;;;;;16.47;13.30;;;14.30;99.90;;;;;;5028009;28;21196;-68
2022/08/22 04:19:03;;;;;;;14.57;12.87;;;14.30;99.90;;;;;;4882525;28;20463;-69
2022/08/22 04:21:48;;;;;;;14.73;13.23;;;14.20;99.90;;;;;;4951264;28;20598;-67
2022/08/22 04:24:39;;;;;;;13.50;12.30;;;14.20;99.90;;;;;;5018067;28;20452;-68
2022/08/22 04:27:12;;;;;;;14.10;13.07;;;14.10;99.90;;;;;;5017994;28;20541;-67
2022/08/22 04:29:45;;;;;;;14.57;13.20;;;14.10;99.90;;;;;;5028673;28;21028;-68
2022/08/22 04:32:21;;;;;;;16.20;12.80;;;14.10;99.90;;;;;;5027264;28;21278;-68
2022/08/22 04:34:53;;;;;;;14.27;13.10;;;14.10;99.90;;;;;;5026857;28;20478;-67
2022/08/22 04:37:25;;;;;;;14.50;13.13;;;14.10;99.90;;;;;;5027092;28;20471;-68
2022/08/22 04:39:55;;;;;;;22.87;14.23;;;14.00;99.90;;;;;;5027551;28;20486;-68
2022/08/22 04:42:29;;;;;;;15.70;14.03;;;14.00;99.90;;;;;;5028360;28;21381;-68
2022/08/22 04:45:03;;;;;;;14.73;13.50;;;14.00;99.90;;;;;;5027412;28;21170;-67
2022/08/22 04:47:35;;;;;;;19.97;14.67;;;14.00;99.90;;;;;;5026097;28;20495;-68
2022/08/22 04:50:13;;;;;;;16.30;13.67;;;14.00;99.90;;;;;;5028220;28;20475;-67
2022/08/22 04:52:52;;;;;;;16.03;14.43;;;14.00;99.90;;;;;;5027420;28;20883;-68
2022/08/22 04:55:31;;;;;;;17.07;14.37;;;13.90;99.90;;;;;;5026215;28;20974;-68
2022/08/22 04:58:09;;;;;;;14.63;13.37;;;13.90;99.90;;;;;;5028334;28;20463;-68
2022/08/22 05:00:40;;;;;;;15.03;13.33;;;13.90;99.90;;;;;;5027707;28;20530;-67
2022/08/22 05:03:14;;;;;;;14.63;13.33;;;13.90;99.90;;;;;;5025625;28;20462;-68
2022/08/22 05:05:46;;;;;;;15.77;14.13;;;13.80;99.90;;;;;;5028965;28;20455;-68
2022/08/22 05:08:19;;;;;;;15.10;13.70;;;13.70;99.90;;;;;;5030573;28;21193;-68
2022/08/22 05:10:49;;;;;;;14.93;13.67;;;13.70;99.90;;;;;;5030901;28;20471;-69
2022/08/22 05:13:19;;;;;;;16.47;14.67;;;13.70;99.90;;;;;;5030889;28;20468;-67
2022/08/22 05:15:49;;;;;;;16.93;15.43;;;13.80;99.90;;;;;;5031794;28;20483;-67
2022/08/22 05:18:21;;;;;;;15.23;13.20;;;13.90;99.90;;;;;;5029767;28;20471;-67
2022/08/22 05:20:50;;;;;;;16.40;13.33;;;14.00;99.90;;;;;;5029472;28;20458;-67
2022/08/22 05:23:21;;;;;;;14.77;12.93;;;14.10;99.90;;;;;;5029206;28;21047;-69
2022/08/22 05:25:53;;;;;;;14.67;13.43;;;14.10;99.90;;;;;;5030693;28;20463;-68
2022/08/22 05:28:28;;;;;;;16.33;14.70;;;14.30;99.90;;;;;;5031629;28;20867;-68
2022/08/22 05:30:56;;;;;;;14.97;13.40;;;14.30;99.90;;;;;;5030899;28;20455;-67
2022/08/22 05:33:30;;;;;;;16.13;14.23;;;14.40;99.90;;;;;;5029582;28;20563;-67
2022/08/22 05:36:03;;;;;;;13.80;12.50;;;14.40;99.90;;;;;;5031275;28;20925;-66
2022/08/22 05:38:33;;;;;;;17.00;14.20;;;14.50;99.90;;;;;;5031065;28;20529;-67
2022/08/22 05:41:05;;;;;;;16.70;15.07;;;14.70;99.90;;;;;;5031681;28;20494;-68
2022/08/22 05:43:36;;;;;;;18.07;15.70;;;14.80;99.90;;;;;;5031650;28;20464;-67
2022/08/22 05:46:08;;;;;;;17.03;14.70;;;15.00;99.90;;;;;;5030964;28;20814;-67
2022/08/22 05:48:41;;;;;;;20.33;14.87;;;15.10;99.90;;;;;;5031244;28;20491;-68
2022/08/22 05:51:17;;;;;;;15.57;14.27;;;15.20;99.90;;;;;;5030819;28;21186;-69
2022/08/22 05:53:49;;;;;;;16.87;15.47;;;15.40;99.90;;;;;;5031691;28;20864;-67
2022/08/22 05:56:22;;;;;;;16.13;14.60;;;15.50;99.90;;;;;;5030272;28;20968;-66
2022/08/22 05:58:53;;;;;;;24.50;15.40;;;15.50;99.90;;;;;;5030267;28;20466;-67
2022/08/22 06:01:28;;;;;;;19.10;16.20;;;15.50;99.90;;;;;;5030661;28;20551;-67
2022/08/22 06:04:05;;;;;;;15.97;14.43;;;15.60;99.90;;;;;;5027690;28;21123;-67
2022/08/22 06:06:39;;;;;;;19.93;14.87;;;15.70;99.90;;;;;;5030224;28;20478;-67
2022/08/22 06:09:12;;;;;;;15.83;14.20;;;15.80;99.90;;;;;;5030595;28;20880;-66
2022/08/22 06:11:44;;;;;;;17.10;15.27;;;16.00;99.90;;;;;;5027701;28;21074;-67
2022/08/22 06:14:20;;;;;;;20.03;15.87;;;16.30;99.90;;;;;;5028639;28;20470;-67
2022/08/22 06:16:50;;;;;;;18.30;16.40;;;16.50;99.90;;;;;;5028572;28;20463;-67
2022/08/22 06:19:19;;;;;;;19.23;14.80;;;16.70;99.90;;;;;;5028936;28;20463;-67
2022/08/22 06:21:50;;;;;;;20.87;15.90;;;17.00;99.90;;;;;;5042432;28;20470;-67
2022/08/22 06:24:22;;;;;;;19.00;14.93;;;17.10;99.90;;;;;;5060694;28;20459;-66
2022/08/22 06:26:51;;;;;;;17.20;15.40;;;17.30;99.90;;;;;;5031929;28;20474;-67
2022/08/22 06:29:31;;;;;;;17.17;14.13;;;17.50;99.90;;;;;;5029708;28;20518;-68
2022/08/22 06:32:00;;;;;;;18.07;16.10;;;17.70;99.90;;;;;;5030150;28;20452;-68
2022/08/22 06:34:32;;;;;;;17.43;15.43;;;17.90;99.90;;;;;;5029502;28;20477;-68
2022/08/22 06:37:04;;;;;;;17.37;15.90;;;18.20;99.90;;;;;;5028084;28;20514;-66
2022/08/22 06:39:33;;;;;;;19.70;17.63;;;18.50;99.90;;;;;;5030132;28;20544;-68
2022/08/22 06:42:04;;;;;;;18.83;17.17;;;18.80;99.90;;;;;;5028567;28;21044;-69
2022/08/22 06:44:34;;;;;;;19.43;17.40;;;19.20;99.90;;;;;;5029257;28;21025;-68
2022/08/22 06:47:05;;;;;;;19.57;17.77;;;19.60;99.90;;;;;;5027776;28;20890;-68
2022/08/22 06:49:35;;;;;;;18.87;17.20;;;20.00;99.90;;;;;;5029247;28;20502;-67
2022/08/22 06:52:07;;;;;;;20.07;18.17;;;20.30;99.90;;;;;;5028356;28;20494;-67
2022/08/22 06:54:39;;;;;;;20.90;18.67;;;20.70;99.90;;;;;;5029280;28;20562;-68
2022/08/22 06:57:24;;;;;;;21.07;19.00;;;21.10;99.90;;;;;;5028356;28;20898;-68
2022/08/22 06:59:52;;;;;;;21.13;19.13;;;21.30;99.90;;;;;;5029639;28;20460;-68
2022/08/22 07:02:27;;;;;;;19.17;17.73;;;21.70;99.90;;;;;;5027482;28;20456;-67
2022/08/22 07:04:54;;;;;;;19.30;18.00;;;22.10;99.90;;;;;;5028186;28;20451;-68
2022/08/22 07:07:26;;;;;;;22.10;18.50;;;22.40;99.90;;;;;;5029501;28;20521;-68
2022/08/22 07:09:56;;;;;;;18.10;16.60;;;22.60;99.90;;;;;;5029228;28;20488;-68
2022/08/22 07:12:26;;;;;;;19.13;17.20;;;22.80;99.90;;;;;;5029806;28;21036;-69
2022/08/22 07:14:58;;;;;;;18.50;17.10;;;23.00;99.90;;;;;;5033818;28;20505;-69
2022/08/22 07:17:27;;;;;;;17.83;16.70;;;23.20;99.90;;;;;;5047461;28;20471;-68
2022/08/22 07:19:58;;;;;;;19.47;17.57;;;23.40;99.90;;;;;;5046188;28;20986;-68
2022/08/22 07:22:31;;;;;;;19.00;17.00;;;23.50;99.90;;;;;;5064223;28;20550;-68
2022/08/22 07:25:02;;;;;;;18.90;17.13;;;23.80;99.90;;;;;;5072302;28;20888;-69
2022/08/22 07:27:44;;;;;;;20.63;17.87;;;23.90;99.90;;;;;;5047828;28;20841;-67
2022/08/22 07:30:13;;;;;;;18.07;16.57;;;23.80;99.90;;;;;;5048555;28;20471;-68
2022/08/22 07:32:52;;;;;;;18.43;17.33;;;23.90;99.90;;;;;;5048693;28;20463;-68
2022/08/22 07:35:23;;;;;;;20.93;19.07;;;24.10;99.90;;;;;;5048619;28;20469;-67
2022/08/22 07:37:59;;;;;;;19.57;17.97;;;23.90;99.90;;;;;;5048684;28;22447;-67
2022/08/22 07:40:31;;;;;;;18.87;17.47;;;23.90;99.90;;;;;;5048920;28;20550;-67
2022/08/22 07:43:04;;;;;;;19.13;17.73;;;24.10;99.90;;;;;;5047809;28;20466;-67
2022/08/22 07:45:43;;;;;;;19.30;17.53;;;24.30;99.90;;;;;;5048195;28;20463;-68
2022/08/22 07:48:20;;;;;;;19.20;17.67;;;24.20;99.90;;;;;;5048514;28;20497;-68
2022/08/22 07:50:57;;;;;;;18.60;17.30;;;24.40;99.90;;;;;;5048312;28;20466;-68
2022/08/22 07:53:34;;;;;;;18.70;17.40;;;24.50;99.90;;;;;;5048056;28;20493;-68
2022/08/22 07:56:04;;;;;;;18.97;17.30;;;24.30;99.90;;;;;;5048201;28;20790;-69
2022/08/22 07:58:33;;;;;;;18.40;17.10;;;24.50;99.90;;;;;;5048550;28;20458;-68
2022/08/22 08:01:01;;;;;;;19.07;17.63;;;24.60;99.90;;;;;;5049277;28;20558;-69
2022/08/22 08:03:30;;;;;;;18.67;17.27;;;24.80;99.90;;;;;;5048405;28;20462;-68
2022/08/22 08:05:59;;;;;;;20.20;18.23;;;25.10;99.90;;;;;;5048794;28;20793;-67
2022/08/22 08:08:33;;;;;;;19.27;17.90;;;25.00;99.90;;;;;;5048178;28;20561;-69
2022/08/22 08:11:03;;;;;;;18.90;17.50;;;25.10;99.90;;;;;;5047788;28;21009;-68
2022/08/22 08:13:35;;;;;;;20.20;18.30;;;25.10;99.90;;;;;;5047613;28;20459;-69
2022/08/22 08:16:04;;;;;;;19.63;18.13;;;25.00;99.90;;;;;;5047740;28;20499;-68
2022/08/22 08:18:34;;;;;;;19.30;17.60;;;24.40;99.90;;;;;;5057307;28;20458;-68
2022/08/22 08:21:04;;;;;;;19.70;17.80;;;24.60;99.90;;;;;;5068201;28;20490;-68
2022/08/22 08:23:37;;;;;;;18.43;17.10;;;24.70;99.90;;;;;;5047051;28;20470;-69
2022/08/22 08:26:09;;;;;;;18.60;17.30;;;25.10;99.90;;;;;;5046469;28;20495;-69
2022/08/22 08:28:40;;;;;;;19.63;18.03;;;25.70;99.90;;;;;;5062172;28;20490;-69
2022/08/22 08:31:14;;;;;;;19.97;18.07;;;26.00;99.90;;;;;;5062386;28;20554;-68
2022/08/22 08:33:44;;;;;;;19.40;17.90;;;25.90;99.90;;;;;;5040514;28;21218;-68
2022/08/22 08:36:27;;;;;;;19.47;17.77;;;25.30;99.90;;;;;;5046722;28;20471;-68
2022/08/22 08:39:02;;;;;;;18.60;17.07;;;25.50;99.90;;;;;;5046264;28;22607;-69
2022/08/22 08:42:00;;;;;;;19.83;17.50;;;25.80;99.90;;;;;;5047880;28;20553;-69
2022/08/22 08:44:46;;;;;;;18.83;17.20;;;26.20;99.90;;;;;;5046832;28;20475;-68
2022/08/22 08:47:28;;;;;;;18.33;16.93;;;25.90;99.90;;;;;;5047145;28;20972;-68
2022/08/22 08:50:12;;;;;;;19.60;17.83;;;26.10;99.90;;;;;;5046776;28;22136;-69
2022/08/22 08:53:01;;;;;;;19.23;17.80;;;26.60;99.90;;;;;;5047506;28;20497;-69
2022/08/22 08:55:45;;;;;;;18.87;17.53;;;26.70;99.90;;;;;;5046464;28;20455;-68
2022/08/22 08:58:37;;;;;;;18.13;16.97;;;26.60;99.90;;;;;;5046757;28;20505;-67
2022/08/22 09:01:19;;;;;;;20.13;18.00;;;26.40;99.90;;;;;;5046826;28;20964;-68
2022/08/22 09:04:19;;;;;;;17.57;15.90;;;26.40;99.90;;;;;;5046904;28;20903;-69
2022/08/22 09:07:05;;;;;;;17.43;16.13;;;26.20;99.90;;;;;;5046397;28;20471;-68
2022/08/22 09:09:47;;;;;;;18.83;17.03;;;26.50;99.90;;;;;;5046052;28;20498;-69
2022/08/22 09:12:35;;;;;;;16.63;15.70;;;25.90;99.90;;;;;;5047187;28;20467;-69
2022/08/22 09:15:38;;;;;;;18.00;16.60;;;26.00;99.90;;;;;;5042911;28;20481;-69
2022/08/22 09:18:32;;;;;;;17.73;16.20;;;26.30;99.90;;;;;;4968530;28;20583;-68
2022/08/22 09:21:27;;;;;;;19.00;17.30;;;26.20;99.90;;;;;;5044851;28;20835;-68
2022/08/22 09:24:22;;;;;;;19.13;17.50;;;26.40;99.90;;;;;;5045825;28;20459;-68
2022/08/22 09:26:52;;;;;;;18.10;16.67;;;26.90;99.90;;;;;;5045247;28;20463;-69
2022/08/22 09:29:37;;;;;;;17.63;16.60;;;27.10;99.90;;;;;;5045425;28;20517;-68
2022/08/22 09:32:12;;;;;;;17.67;16.47;;;27.50;99.50;;;;;;5043811;28;20504;-69
2022/08/22 09:34:51;;;;;;;17.87;16.57;;;27.50;98.80;;;;;;5045007;28;20565;-69
2022/08/22 09:37:25;;;;;;;18.13;16.57;;;27.50;98.50;;;;;;5045032;28;21080;-69
2022/08/22 09:40:00;;;;;;;18.13;16.63;;;27.40;97.90;;;;;;5045330;28;21034;-69
2022/08/22 09:42:35;;;;;;;18.50;16.60;;;27.40;97.90;;;;;;5045203;28;20794;-68
2022/08/22 09:45:33;;;;;;;17.57;16.13;;;27.60;97.80;;;;;;5045273;28;20983;-69
2022/08/22 09:48:04;;;;;;;17.63;16.43;;;27.60;96.70;;;;;;5045354;28;21107;-69
2022/08/22 09:50:48;;;;;;;18.43;16.77;;;27.70;95.70;;;;;;5046520;28;20498;-69
2022/08/22 09:53:33;;;;;;;17.93;16.43;;;27.30;96.70;;;;;;5048828;28;20482;-69
2022/08/22 09:56:04;;;;;;;18.23;16.97;;;27.70;97.00;;;;;;5049172;28;20732;-69
2022/08/22 09:58:39;;;;;;;17.97;16.47;;;28.30;96.40;;;;;;5048147;28;20498;-68
2022/08/22 10:01:15;;;;;;;17.87;16.43;;;28.20;96.00;;;;;;5048175;28;20468;-69
2022/08/22 10:04:15;;;;;;;18.27;17.07;;;28.00;96.60;;;;;;5048361;28;20472;-68
2022/08/22 10:06:51;;;;;;;17.83;16.43;;;27.90;97.40;;;;;;5045568;28;20457;-68
2022/08/22 10:09:23;;;;;;;20.70;16.80;;;27.90;94.90;;;;;;5048957;28;20973;-68
2022/08/22 10:11:59;;;;;;;18.00;16.70;;;27.80;94.30;;;;;;5048364;28;20706;-70
2022/08/22 10:14:33;;;;;;;17.23;16.07;;;27.90;93.40;;;;;;5048105;28;20504;-70
2022/08/22 10:17:15;;;;;;;17.70;16.17;;;27.90;93.60;;;;;;5048473;28;20466;-71
2022/08/22 10:19:46;;;;;;;18.87;17.00;;;28.00;94.00;;;;;;5047586;28;21522;-70
2022/08/22 10:22:23;;;;;;;17.90;16.50;;;28.30;93.00;;;;;;5048137;28;20450;-70
2022/08/22 10:25:09;;;;;;;17.37;15.77;;;28.50;93.30;;;;;;5046767;28;20477;-68
2022/08/22 10:27:55;;;;;;;17.30;15.97;;;28.40;93.60;;;;;;5048341;28;21269;-70
2022/08/22 10:30:27;;;;;;;17.87;16.37;;;28.40;93.10;;;;;;5047766;28;20482;-70
2022/08/22 10:33:01;;;;;;;17.97;16.27;;;28.60;91.40;;;;;;5083186;28;20458;-68
2022/08/22 10:35:31;;;;;;;16.50;15.40;;;28.80;91.00;;;;;;5073821;28;20573;-69
2022/08/22 10:38:00;;;;;;;17.83;16.43;;;28.70;90.70;;;;;;5064170;28;20459;-69
2022/08/22 10:40:34;;;;;;;17.70;16.30;;;29.00;89.70;;;;;;5045167;28;20459;-69
2022/08/22 10:43:09;;;;;;;19.07;17.63;;;29.10;88.30;;;;;;5048650;28;20473;-68
2022/08/22 10:45:40;;;;;;;17.80;16.60;;;29.10;87.30;;;;;;5048018;28;20536;-69
2022/08/22 10:48:34;;;;;;;17.37;16.27;;;28.70;86.40;;;;;;5047463;28;20470;-69
2022/08/22 10:51:10;;;;;;;18.47;17.07;;;28.90;85.20;;;;;;5047871;28;20940;-70
2022/08/22 10:54:01;;;;;;;18.57;16.80;;;29.30;85.20;;;;;;5046858;28;21129;-70
2022/08/22 10:56:38;;;;;;;18.53;17.10;;;29.40;84.20;;;;;;5000840;28;20463;-69
2022/08/22 10:59:19;;;;;;;18.30;17.00;;;29.70;86.00;;;;;;5048068;28;20472;-69
2022/08/22 11:01:52;;;;;;;18.33;16.70;;;29.70;82.10;;;;;;5046255;28;20470;-70
2022/08/22 11:04:42;;;;;;;17.40;16.40;;;29.60;81.50;;;;;;5047448;28;21367;-70
2022/08/22 11:07:19;;;;;;;18.80;17.10;;;29.50;82.40;;;;;;5047350;28;20876;-70
2022/08/22 11:09:55;;;;;;;18.63;17.13;;;30.00;82.00;;;;;;5046251;28;20490;-70
2022/08/22 11:12:32;;;;;;;17.97;16.70;;;30.60;80.40;;;;;;5047064;28;20459;-70
2022/08/22 11:15:07;;;;;;;18.17;16.87;;;30.70;78.30;;;;;;5048892;28;20498;-70
2022/08/22 11:18:03;;;;;;;18.10;17.00;;;31.30;76.30;;;;;;5048368;28;20917;-70
2022/08/22 11:20:42;;;;;;;18.90;17.47;;;31.60;74.20;;;;;;5049342;28;21179;-70
2022/08/22 11:23:22;;;;;;;18.87;17.40;;;31.30;73.70;;;;;;5049361;28;20461;-70
2022/08/22 11:25:56;;;;;;;19.13;17.73;;;31.40;71.80;;;;;;5048654;28;21218;-70
2022/08/22 11:29:00;;;;;;;19.53;17.90;;;31.70;71.20;;;;;;5049027;28;20446;-69
2022/08/22 11:31:38;;;;;;;17.10;15.90;;;31.80;71.00;;;;;;5048174;28;20460;-70
2022/08/22 11:34:12;;;;;;;18.90;17.47;;;31.90;67.80;;;;;;5048085;28;20488;-69
2022/08/22 11:36:50;;;;;;;17.90;16.80;;;32.90;66.90;;;;;;5048668;28;20463;-69
2022/08/22 11:39:24;;;;;;;17.53;16.33;;;32.20;64.10;;;;;;5047398;28;20481;-70
2022/08/22 11:41:58;;;;;;;18.70;17.07;;;32.90;64.20;;;;;;5048081;28;20463;-69
2022/08/22 11:44:29;;;;;;;18.30;17.10;;;33.10;60.20;;;;;;5048612;28;20792;-69
2022/08/22 11:47:00;;;;;;;19.27;17.60;;;33.80;58.90;;;;;;5049011;28;20926;-69
2022/08/22 11:49:52;;;;;;;18.70;17.43;;;33.90;58.30;;;;;;5048631;28;20525;-68
2022/08/22 11:52:41;;;;;;;18.67;17.30;;;33.90;56.60;;;;;;5047755;28;20471;-68
2022/08/22 11:55:19;;;;;;;18.43;17.23;;;33.90;58.00;;;;;;5047370;28;20494;-69
2022/08/22 11:57:48;;;;;;;21.33;19.93;;;34.00;56.10;;;;;;5048846;28;20614;-71
2022/08/22 12:00:26;;;;;;;18.67;17.47;;;35.10;56.20;;;;;;5048286;28;20844;-68
2022/08/22 12:03:29;;;;;;;17.27;16.20;;;35.90;53.30;;;;;;5047192;28;20912;-68
2022/08/22 12:06:03;;;;;;;18.53;17.10;;;36.30;51.80;;;;;;5033009;28;20953;-69
2022/08/22 12:09:15;;;;;;;17.20;15.90;;;35.80;50.90;;;;;;5047790;28;20977;-67
2022/08/22 12:11:58;;;;;;;18.00;16.90;;;35.70;50.90;;;;;;5013496;28;20939;-68
2022/08/22 12:14:34;;;;;;;17.73;16.23;;;34.50;51.50;;;;;;5048189;28;20738;-69
2022/08/22 12:17:25;;;;;;;18.40;17.03;;;35.10;50.30;;;;;;5047491;28;20461;-69
2022/08/22 12:20:03;;;;;;;18.03;16.50;;;34.70;50.60;;;;;;5046255;28;20478;-70
2022/08/22 12:22:55;;;;;;;18.07;16.27;;;35.20;49.10;;;;;;5048193;28;20935;-68
2022/08/22 12:25:41;;;;;;;17.77;16.57;;;35.50;47.20;;;;;;5044498;28;20473;-69
2022/08/22 12:28:17;;;;;;;19.77;15.83;;;36.20;47.00;;;;;;5046985;28;20486;-69
2022/08/22 12:30:55;;;;;;;16.73;15.47;;;36.00;47.10;;;;;;5046808;28;20933;-69
2022/08/22 12:33:50;;;;;;;17.43;16.03;;;34.50;47.90;;;;;;5047514;28;20746;-69
2022/08/22 12:36:34;;;;;;;16.83;15.60;;;35.40;47.70;;;;;;5043755;28;21685;-69
2022/08/22 12:39:23;;;;;;;18.43;16.00;;;36.10;46.40;;;;;;5047056;28;20450;-68
2022/08/22 12:42:16;;;;;;;17.40;16.47;;;35.90;46.60;;;;;;5047039;28;20473;-69
2022/08/22 12:45:00;;;;;;;16.40;15.40;;;36.80;45.70;;;;;;5012981;28;20459;-68
2022/08/22 12:47:37;;;;;;;16.60;15.50;;;36.70;42.60;;;;;;5048216;28;20465;-69
2022/08/22 12:50:19;;;;;;;16.97;15.87;;;36.10;41.90;;;;;;5047530;28;20865;-69
2022/08/22 12:52:59;;;;;;;16.37;15.00;;;36.00;41.70;;;;;;5047560;28;20848;-69
2022/08/22 12:55:53;;;;;;;16.07;15.17;;;37.20;40.50;;;;;;5046585;28;20953;-70
2022/08/22 12:58:30;;;;;;;17.90;16.60;;;37.70;39.90;;;;;;5047183;28;20456;-69
2022/08/22 13:01:05;;;;;;;15.97;14.90;;;38.30;38.00;;;;;;5046683;28;20832;-69
2022/08/22 13:03:35;;;;;;;16.30;15.20;;;38.30;37.70;;;;;;5048350;28;20515;-70
2022/08/22 13:06:25;;;;;;;16.13;15.23;;;38.10;36.70;;;;;;5047547;28;20479;-69
2022/08/22 13:08:53;;;;;;;16.27;15.47;;;37.60;38.20;;;;;;5046513;28;20567;-69
2022/08/22 13:11:22;;;;;;;17.97;16.87;;;37.20;37.50;;;;;;5046031;28;20517;-68
2022/08/22 13:13:52;;;;;;;16.83;15.70;;;38.20;36.70;;;;;;5047591;28;20785;-69
2022/08/22 13:16:24;;;;;;;18.33;16.63;;;38.80;36.90;;;;;;5046236;28;21027;-68
2022/08/22 13:18:55;;;;;;;16.13;15.00;;;39.10;36.10;;;;;;5047304;28;20481;-69
2022/08/22 13:21:26;;;;;;;16.17;15.27;;;39.30;35.60;;;;;;5047063;28;20458;-69
2022/08/22 13:23:55;;;;;;;17.43;16.20;;;39.10;37.20;;;;;;5048237;28;23025;-69
2022/08/22 13:26:25;;;;;;;17.20;16.00;;;39.10;36.90;;;;;;5049449;28;20469;-69
2022/08/22 13:29:01;;;;;;;17.27;16.17;;;37.80;38.10;;;;;;5050494;28;21393;-69